In Rescue
 
Open Full Screen Window  High Contrast Mode
Wind Gusting 25 knots
16
May 28, 2020 4:42 PM CDT
Weather Information
Wind Direction
  310 °
Wind Speed
  16 kt (18 mph)
Wind Gust
  25 kt (29 mph)
Altimeter
29.97 in
Visibility
10 SM
Temperature
16° C
61° F
Dewpoint
05° C
41° F
Humidity
48%
1hr Rain Fall
00.00 in.
24hr Rain Fall
00.00 in.
Sky Condition
Overcast @ 5,000 ft
VFR

METAR KBJI 282142Z AUTO 31016G25KT 10SM OVC050 16/05 A2997 RMK AO2 T01630049

FAA Disclaimer: The data displayed is for advisory purposes only and is not to be used for flight planning or operations.